SBFLSBJV

Guest
Details From SBFL - Hercillo Luz
To SBJV - LAURO CARNEIRO DE LOYOLA
Flight Number -
Tags generated
Created
Modified
Stats Distance 88 nm / 163 km
Max Altitude 10,700 ft / 3,261 m
Waypoints 3
Social Downloads 0
Likes 0
Share VATSIM

Download

Looking for another format? Having issues loading an existing format? Contact us
Advertisement - Login to hide

Notes

Basic altitude profile: - Ascent Rate: 2500ft/min - Ascent Speed: 250kts - Cruise Altitude: 35000ft - Cruise Speed: 420kts - Descent Rate: 1500ft/min - Descent Speed: 250kts Options: - Use NATs: yes - Use PACOTS: yes - Use low airways: yes - Use high airways: yes

Route

SBFL AGURI SBJV

ID Type Via Altitude Latitude Longitude Leg Dist Tot Dist Heading (true) Name
O SBFL APT - 0 ft / 0 m -27.67049˚ -48.54718˚ - 0 nm - Hercillo Luz
AGURI FIX - 10,700 ft / 3,261 m -27.12850˚ -48.67567˚ 33 nm 33 nm 348° / 348° -
O SBJV APT - 0 ft / 0 m -26.22445˚ -48.79736˚ 54 nm 87 nm 353° / 353° LAURO CARNEIRO DE LOYOLA

Altitude Profile

Advertisement - Login to hide

SBFL

Details ICAO SBFL (FLN)
Name Hercillo Luz
Region Brazil
Timezone America/Sao_Paulo (UTC-2.0)
Stats Elevation 19 ft / 6 m (AMSL)
Location -27.670487° -48.547180°
Runways 2
Magnetic Variation 19.321° W

METAR

SBFL 151900Z 35010KT 9999 SCT030 FEW035TCU 26/22 Q1011

Decode

TAF

TAF SBFL 151500Z 1518/1618 03005KT 9999 FEW025 TX29/1518Z TN21/1609Z PROB30 1518/1521 8000 SHRA SCT030 FEW035TCU BECMG 1612/1616 36010KT RMK PDN

Decode

Departure Runways

ID Width Length Bearing (true) Bearing (mag) Surface Threshold Offset Overrun Length
03 148 ft / 45 m 4,939 ft / 1,505 m 11.55° 30.87° Concrete 0 ft / 0 m 0 ft / 0 m
14 148 ft / 45 m 7,543 ft / 2,299 m 121.30° 140.62° Asphalt 720 ft / 219 m 0 ft / 0 m
21 148 ft / 45 m 4,939 ft / 1,505 m 191.55° 210.87° Concrete 0 ft / 0 m 0 ft / 0 m
32 148 ft / 45 m 7,543 ft / 2,299 m 301.29° 320.61° Asphalt 0 ft / 0 m 200 ft / 61 m

SBJV

Details ICAO SBJV (JOI)
Name LAURO CARNEIRO DE LOYOLA
Region Brazil
Timezone Unknown (UTC+0.0)
Stats Elevation 15 ft / 5 m (AMSL)
Location -26.224452° -48.797362°
Runways 1
Magnetic Variation 19.628° W

METAR

SBJV 151900Z 06007KT 030V090 9999 FEW018 SCT025 29/24 Q1011

Decode

TAF

TAF SBJV 151500Z 1518/1606 07007KT 7000 SHRA SCT020 FEW030TCU TX29/1518Z TN23/1606Z PROB30 1518/1521 4000 TSRA FEW030CB BECMG 1603/1606 13002KT SCT020 RMK PDN

Decode

Destination Runways

ID Width Length Bearing (true) Bearing (mag) Surface Threshold Offset Overrun Length
15 148 ft / 45 m 5,382 ft / 1,640 m 128.89° 148.52° Asphalt 0 ft / 0 m 200 ft / 61 m
33 148 ft / 45 m 5,382 ft / 1,640 m 308.88° 328.51° Asphalt 0 ft / 0 m 200 ft / 61 m

Popular Alternatives